createdAt,value
2022-12-08T00:00:46.851Z,2.31
2022-12-08T00:03:32.267Z,2.26
2022-12-08T00:06:36.982Z,2.20
2022-12-08T00:09:32.035Z,2.23
2022-12-08T00:12:19.565Z,2.21
2022-12-08T00:15:05.250Z,2.13
2022-12-08T00:17:50.862Z,2.13
2022-12-08T00:20:36.259Z,2.07
2022-12-08T00:23:21.618Z,2.08
2022-12-08T00:26:07.066Z,2.12
2022-12-08T00:28:52.033Z,2.08
2022-12-08T00:31:37.540Z,1.98
2022-12-08T00:34:22.932Z,1.96
2022-12-08T00:37:08.172Z,1.95
2022-12-08T00:39:53.037Z,1.95
2022-12-08T00:42:38.034Z,1.86
2022-12-08T00:45:23.522Z,1.89
2022-12-08T00:48:08.468Z,1.89
2022-12-08T00:50:53.368Z,1.96
2022-12-08T00:53:38.327Z,2.03
2022-12-08T00:56:24.387Z,2.01
2022-12-08T00:59:10.138Z,2.06
2022-12-08T01:01:55.810Z,2.06
2022-12-08T01:04:40.622Z,2.11
2022-12-08T01:07:26.042Z,2.14
2022-12-08T01:10:11.443Z,2.17
2022-12-08T01:12:58.448Z,2.20
2022-12-08T01:15:44.002Z,2.22
2022-12-08T01:18:29.551Z,2.18
2022-12-08T01:21:14.662Z,2.16
2022-12-08T01:24:01.074Z,2.17
2022-12-08T01:26:47.495Z,2.20
2022-12-08T01:29:32.744Z,2.15
2022-12-08T01:32:18.024Z,2.14
2022-12-08T01:35:03.302Z,2.11
2022-12-08T01:37:50.204Z,2.08
2022-12-08T01:40:36.377Z,2.07
2022-12-08T01:43:22.224Z,2.10
2022-12-08T01:46:07.337Z,2.10
2022-12-08T01:49:02.515Z,2.08
2022-12-08T01:52:02.631Z,2.12
2022-12-08T01:54:53.134Z,2.14
2022-12-08T01:57:44.981Z,2.14
2022-12-08T02:00:30.197Z,2.22
2022-12-08T02:03:31.856Z,2.20
2022-12-08T02:06:18.778Z,2.21
2022-12-08T02:09:05.936Z,2.21
2022-12-08T02:11:51.389Z,2.22
2022-12-08T02:14:36.890Z,2.19
2022-12-08T02:17:47.856Z,2.14
2022-12-08T02:20:49.063Z,2.14
2022-12-08T02:23:46.000Z,2.15
2022-12-08T02:26:40.076Z,2.13
2022-12-08T02:29:28.560Z,2.11
2022-12-08T02:32:51.003Z,2.11
2022-12-08T02:35:35.971Z,2.09
2022-12-08T02:38:33.666Z,2.11
2022-12-08T02:41:29.907Z,2.11
2022-12-08T02:44:44.141Z,2.14
2022-12-08T02:47:31.793Z,2.11
2022-12-08T02:50:16.800Z,2.16
2022-12-08T02:53:02.094Z,2.11
2022-12-08T02:56:28.716Z,2.15
2022-12-08T02:59:33.719Z,2.15
2022-12-08T03:02:32.182Z,2.22
2022-12-08T03:05:35.485Z,2.24
2022-12-08T03:08:43.298Z,2.27
2022-12-08T03:11:41.633Z,2.21
2022-12-08T03:14:29.173Z,2.21
2022-12-08T03:17:16.828Z,2.28
2022-12-08T03:20:07.495Z,2.28
2022-12-08T03:22:55.559Z,2.32
2022-12-08T03:25:51.849Z,2.33
2022-12-08T03:28:37.968Z,2.34
2022-12-08T03:31:35.484Z,2.32
2022-12-08T03:34:23.757Z,2.34
2022-12-08T03:37:08.950Z,2.36
2022-12-08T03:39:53.864Z,2.41
2022-12-08T03:42:39.143Z,2.40
2022-12-08T03:45:24.694Z,2.41
2022-12-08T03:48:09.852Z,2.44
2022-12-08T03:50:54.756Z,2.50
2022-12-08T03:53:39.855Z,2.48
2022-12-08T03:56:37.172Z,2.46
2022-12-08T03:59:22.220Z,2.50
2022-12-08T04:02:07.696Z,2.54
2022-12-08T04:04:52.954Z,2.54
2022-12-08T04:07:38.547Z,2.55
2022-12-08T04:10:23.785Z,2.56
2022-12-08T04:13:09.130Z,2.59
2022-12-08T04:15:54.392Z,2.61
2022-12-08T04:18:39.463Z,2.59
2022-12-08T04:21:24.832Z,2.60
2022-12-08T04:24:10.223Z,2.59
2022-12-08T04:26:55.632Z,2.60
2022-12-08T04:29:41.203Z,2.60
2022-12-08T04:32:26.546Z,2.62
2022-12-08T04:35:11.472Z,2.62
2022-12-08T04:37:56.558Z,2.64
2022-12-08T04:40:41.864Z,2.61
2022-12-08T04:43:26.993Z,2.59
2022-12-08T04:46:12.016Z,2.62
2022-12-08T04:48:57.259Z,2.62
2022-12-08T04:51:42.224Z,2.60
2022-12-08T04:54:27.238Z,2.62
2022-12-08T04:57:13.509Z,2.61
2022-12-08T04:59:58.663Z,2.64
2022-12-08T05:02:43.720Z,2.56
2022-12-08T05:05:29.116Z,2.50
2022-12-08T05:08:14.056Z,2.51
2022-12-08T05:11:05.113Z,2.47
2022-12-08T05:13:50.162Z,2.44
2022-12-08T05:16:36.662Z,2.43
2022-12-08T05:19:21.518Z,2.39
2022-12-08T05:22:07.070Z,2.35
2022-12-08T05:24:52.302Z,2.30
2022-12-08T05:27:40.616Z,2.27
2022-12-08T05:30:25.550Z,2.37
2022-12-08T05:33:10.407Z,2.24
2022-12-08T05:35:55.472Z,2.21
2022-12-08T05:38:41.091Z,2.19
2022-12-08T05:41:26.471Z,2.22
2022-12-08T05:44:11.865Z,2.12
2022-12-08T05:46:57.914Z,2.15
2022-12-08T05:49:43.237Z,2.15
2022-12-08T05:52:28.339Z,2.20
2022-12-08T05:55:13.988Z,2.21
2022-12-08T05:58:03.075Z,2.22
2022-12-08T06:00:51.924Z,2.23
2022-12-08T06:03:37.201Z,2.30
2022-12-08T06:06:22.668Z,2.33
2022-12-08T06:09:07.871Z,2.34
2022-12-08T06:11:53.409Z,2.33
2022-12-08T06:14:39.799Z,2.37
2022-12-08T06:17:24.900Z,2.35
2022-12-08T06:20:10.472Z,2.36
2022-12-08T06:22:55.586Z,2.34
2022-12-08T06:25:41.037Z,2.37
2022-12-08T06:28:26.364Z,2.35
2022-12-08T06:31:18.643Z,2.40
2022-12-08T06:34:04.294Z,2.35
2022-12-08T06:36:49.403Z,2.36
2022-12-08T06:39:34.725Z,2.35
2022-12-08T06:42:20.057Z,2.36
2022-12-08T06:45:05.596Z,2.36
2022-12-08T06:47:50.644Z,2.35
2022-12-08T06:50:35.621Z,2.35
2022-12-08T06:53:20.588Z,2.33
2022-12-08T06:56:06.650Z,2.37
2022-12-08T06:58:52.967Z,2.36
2022-12-08T07:01:38.452Z,2.37
2022-12-08T07:04:24.094Z,2.36
2022-12-08T07:07:11.477Z,2.37
2022-12-08T07:09:57.093Z,2.38
2022-12-08T07:12:44.267Z,2.40
2022-12-08T07:15:29.308Z,2.41
2022-12-08T07:18:14.670Z,2.40
2022-12-08T07:21:08.005Z,2.41
2022-12-08T07:23:57.545Z,2.37
2022-12-08T07:26:43.635Z,2.37
2022-12-08T07:29:29.032Z,2.42
2022-12-08T07:32:13.960Z,2.42
2022-12-08T07:34:59.151Z,2.43
2022-12-08T07:37:44.754Z,2.35
2022-12-08T07:40:30.036Z,2.37
2022-12-08T07:43:15.283Z,2.38
2022-12-08T07:46:00.176Z,2.40
2022-12-08T07:48:45.920Z,2.37
2022-12-08T07:51:31.294Z,2.43
2022-12-08T07:54:16.298Z,2.42
2022-12-08T07:57:01.686Z,2.32
2022-12-08T07:59:46.877Z,2.20
2022-12-08T08:02:32.356Z,2.25
2022-12-08T08:05:17.752Z,2.33
2022-12-08T08:08:03.260Z,2.22
2022-12-08T08:10:50.694Z,2.23
2022-12-08T08:13:36.061Z,2.19
2022-12-08T08:16:21.415Z,2.23
2022-12-08T08:19:06.880Z,2.26
2022-12-08T08:21:51.988Z,2.22
2022-12-08T08:24:43.127Z,2.26
2022-12-08T08:27:30.204Z,2.24
2022-12-08T08:30:20.408Z,2.25
2022-12-08T08:33:06.171Z,2.27
2022-12-08T08:35:51.805Z,2.31
2022-12-08T08:38:37.603Z,2.31
2022-12-08T08:41:22.881Z,2.29
2022-12-08T08:44:08.474Z,2.32
2022-12-08T08:46:53.887Z,2.30
2022-12-08T08:49:39.293Z,2.34
2022-12-08T08:52:24.610Z,2.45
2022-12-08T08:55:10.360Z,2.39
2022-12-08T08:57:55.702Z,2.41
2022-12-08T09:00:41.079Z,2.47
2022-12-08T09:03:26.130Z,2.50
2022-12-08T09:06:11.852Z,2.45
2022-12-08T09:08:57.122Z,2.57
2022-12-08T09:11:42.903Z,2.47
2022-12-08T09:14:27.865Z,2.54
2022-12-08T09:17:13.369Z,2.49
2022-12-08T09:19:58.581Z,2.53
2022-12-08T09:22:44.063Z,2.48
2022-12-08T09:25:29.553Z,2.56
2022-12-08T09:28:15.302Z,2.64
2022-12-08T09:31:00.924Z,2.61
2022-12-08T09:33:46.361Z,2.65
2022-12-08T09:36:32.050Z,2.61
2022-12-08T09:39:17.420Z,2.66
2022-12-08T09:42:05.649Z,2.65
2022-12-08T09:44:54.851Z,2.57
2022-12-08T09:47:42.146Z,2.56
2022-12-08T09:50:43.672Z,2.55
2022-12-08T09:53:35.896Z,2.41
2022-12-08T09:56:25.620Z,2.49
2022-12-08T09:59:24.741Z,2.41
2022-12-08T10:02:24.901Z,2.54
2022-12-08T10:05:14.019Z,2.64
2022-12-08T10:08:16.131Z,2.50
2022-12-08T10:11:14.038Z,2.53
2022-12-08T10:14:29.095Z,2.56
2022-12-08T10:17:33.491Z,2.38
2022-12-08T10:20:22.468Z,2.46
2022-12-08T10:23:33.536Z,2.51
2022-12-08T10:26:20.666Z,2.46
2022-12-08T10:29:05.954Z,2.45
2022-12-08T10:31:52.447Z,2.55
2022-12-08T10:34:59.222Z,2.57
2022-12-08T10:37:58.796Z,2.49
2022-12-08T10:40:45.881Z,2.35
2022-12-08T10:43:32.829Z,2.55
2022-12-08T10:46:22.975Z,2.47
2022-12-08T10:49:08.152Z,2.56
2022-12-08T10:51:53.200Z,2.64
2022-12-08T10:54:42.585Z,2.59
2022-12-08T10:57:28.156Z,2.51
2022-12-08T11:00:34.862Z,2.48
2022-12-08T11:03:34.347Z,2.42
2022-12-08T11:06:30.790Z,2.50
2022-12-08T11:09:16.179Z,2.38
2022-12-08T11:12:24.710Z,2.40
2022-12-08T11:15:16.057Z,2.30
2022-12-08T11:18:08.295Z,2.31
2022-12-08T11:21:13.686Z,2.29
2022-12-08T11:23:58.927Z,2.31
2022-12-08T11:26:50.750Z,2.31
2022-12-08T11:29:36.206Z,2.26
2022-12-08T11:32:21.373Z,2.34
2022-12-08T11:35:23.697Z,2.40
2022-12-08T11:38:21.575Z,2.37
2022-12-08T11:41:15.844Z,2.35
2022-12-08T11:44:01.894Z,2.44
2022-12-08T11:46:56.078Z,2.49
2022-12-08T11:49:42.665Z,2.44
2022-12-08T11:52:32.652Z,2.46
2022-12-08T11:55:20.554Z,2.44
2022-12-08T11:58:20.320Z,2.36
2022-12-08T12:01:06.209Z,2.41
2022-12-08T12:04:14.293Z,2.46
2022-12-08T12:07:05.265Z,2.47
2022-12-08T12:10:28.361Z,2.40
2022-12-08T12:13:32.350Z,2.40
2022-12-08T12:16:21.955Z,2.42
2022-12-08T12:19:17.888Z,2.61
2022-12-08T12:22:15.444Z,2.66
2022-12-08T12:25:02.371Z,2.66
2022-12-08T12:27:48.239Z,2.52
2022-12-08T12:31:05.648Z,2.60
2022-12-08T12:33:53.497Z,2.64
2022-12-08T12:37:03.581Z,2.69
2022-12-08T12:39:52.081Z,2.62
2022-12-08T12:42:46.044Z,2.72
2022-12-08T12:45:33.785Z,2.73
2022-12-08T12:48:25.316Z,2.72
2022-12-08T12:51:36.040Z,2.65
2022-12-08T12:54:28.687Z,2.64
2022-12-08T12:57:14.288Z,2.83
2022-12-08T12:59:59.818Z,2.89
2022-12-08T13:02:44.952Z,2.87
2022-12-08T13:05:35.891Z,2.87
2022-12-08T13:08:26.218Z,2.91
2022-12-08T13:11:12.589Z,3.10
2022-12-08T13:13:59.510Z,3.00
2022-12-08T13:16:45.280Z,2.90
2022-12-08T13:19:32.464Z,2.84
2022-12-08T13:22:54.971Z,2.87
2022-12-08T13:25:40.446Z,3.00
2022-12-08T13:28:28.888Z,2.93
2022-12-08T13:31:49.836Z,2.77
2022-12-08T13:34:50.357Z,2.69
2022-12-08T13:37:54.494Z,2.64
2022-12-08T13:40:42.371Z,2.81
2022-12-08T13:44:20.049Z,2.90
2022-12-08T13:47:31.639Z,2.85
2022-12-08T13:54:09.861Z,2.62
2022-12-08T13:59:47.663Z,2.51
2022-12-08T14:02:47.766Z,2.63
2022-12-08T14:06:11.107Z,2.75
2022-12-08T14:09:06.916Z,2.56
2022-12-08T14:11:59.277Z,2.61
2022-12-08T14:15:03.210Z,2.72
2022-12-08T14:17:57.060Z,2.69
2022-12-08T14:21:12.632Z,2.66
2022-12-08T14:23:47.180Z,2.58
2022-12-08T14:26:34.425Z,2.50
2022-12-08T14:29:37.065Z,2.48
2022-12-08T14:32:33.385Z,2.50
2022-12-08T14:35:18.815Z,2.46
2022-12-08T14:38:15.616Z,2.50
2022-12-08T14:41:07.108Z,2.48
2022-12-08T14:44:00.450Z,2.52
2022-12-08T14:47:06.812Z,2.60
2022-12-08T14:49:55.090Z,2.58
2022-12-08T14:52:44.405Z,2.60
2022-12-08T14:55:39.673Z,2.47
2022-12-08T14:58:30.285Z,2.50
2022-12-08T15:01:21.036Z,2.51
2022-12-08T15:04:18.511Z,2.56
2022-12-08T15:07:13.535Z,2.42
2022-12-08T15:10:17.158Z,2.43
2022-12-08T15:13:11.302Z,2.42
2022-12-08T15:15:58.062Z,2.37
2022-12-08T15:18:43.534Z,2.43
2022-12-08T15:21:33.187Z,2.46
2022-12-08T15:24:26.020Z,2.44
2022-12-08T15:27:18.200Z,2.43
2022-12-08T15:30:04.172Z,2.39
2022-12-08T15:32:49.277Z,2.36
2022-12-08T15:35:40.570Z,2.44
2022-12-08T15:38:28.860Z,2.46
2022-12-08T15:41:15.302Z,2.36
2022-12-08T15:44:00.576Z,2.45
2022-12-08T15:46:45.718Z,2.48
2022-12-08T15:49:31.261Z,2.43
2022-12-08T15:52:22.397Z,2.57
2022-12-08T15:55:12.156Z,2.53
2022-12-08T15:58:51.929Z,2.55
2022-12-08T16:01:02.697Z,2.58
2022-12-08T16:09:59.029Z,2.64
2022-12-08T16:13:48.141Z,2.67
2022-12-08T16:15:59.781Z,2.60
2022-12-08T16:18:48.312Z,2.42
2022-12-08T16:22:04.813Z,2.39
2022-12-08T16:24:38.670Z,2.14
2022-12-08T16:27:59.943Z,2.10
2022-12-08T16:30:34.510Z,2.07
2022-12-08T16:33:19.470Z,2.11
2022-12-08T16:36:04.370Z,2.19
2022-12-08T16:38:49.493Z,2.17
2022-12-08T16:41:34.421Z,2.14
2022-12-08T16:44:20.525Z,2.12
2022-12-08T16:47:10.149Z,2.18
2022-12-08T16:49:55.546Z,2.23
2022-12-08T16:52:41.376Z,2.30
2022-12-08T16:55:26.779Z,2.24
2022-12-08T16:58:12.010Z,2.29
2022-12-08T17:00:58.666Z,2.24
2022-12-08T17:04:01.043Z,2.19
2022-12-08T17:06:50.011Z,2.16
2022-12-08T17:09:36.285Z,2.24
2022-12-08T17:12:21.419Z,2.33
2022-12-08T17:15:10.004Z,2.36
2022-12-08T17:17:55.328Z,2.31
2022-12-08T17:20:40.368Z,2.28
2022-12-08T17:23:25.797Z,2.29
2022-12-08T17:26:11.694Z,2.30
2022-12-08T17:29:01.449Z,2.32
2022-12-08T17:31:47.326Z,2.39
2022-12-08T17:34:32.759Z,2.37
2022-12-08T17:37:18.329Z,2.31
2022-12-08T17:40:04.677Z,2.22
2022-12-08T17:42:51.324Z,2.14
2022-12-08T17:45:44.084Z,2.08
2022-12-08T17:48:28.980Z,2.12
2022-12-08T17:51:14.815Z,2.13
2022-12-08T17:54:00.074Z,2.15
2022-12-08T17:56:45.568Z,2.19
2022-12-08T17:59:32.405Z,2.22
2022-12-08T18:02:17.659Z,2.05
2022-12-08T18:05:02.507Z,1.94
2022-12-08T18:07:47.429Z,1.90
2022-12-08T18:10:32.851Z,1.83
2022-12-08T18:13:18.178Z,1.85
2022-12-08T18:16:03.946Z,1.94
2022-12-08T18:18:49.230Z,1.95
2022-12-08T18:21:35.756Z,1.91
2022-12-08T18:24:23.461Z,1.95
2022-12-08T18:27:08.750Z,2.04
2022-12-08T18:29:53.940Z,2.04
2022-12-08T18:32:39.048Z,2.08
2022-12-08T18:35:24.019Z,2.01
2022-12-08T18:38:09.122Z,1.96
2022-12-08T18:40:53.829Z,1.99
2022-12-08T18:43:38.871Z,1.95
2022-12-08T18:46:24.911Z,1.93
2022-12-08T18:49:15.599Z,1.94
2022-12-08T18:52:00.729Z,1.92
2022-12-08T18:57:51.141Z,2.00
2022-12-08T19:00:36.374Z,1.95
2022-12-08T19:03:21.454Z,1.96
2022-12-08T19:06:07.077Z,2.01
2022-12-08T19:08:52.455Z,1.94
2022-12-08T19:11:38.338Z,1.90
2022-12-08T19:14:28.510Z,1.88
2022-12-08T19:17:14.054Z,1.81
2022-12-08T19:19:59.474Z,1.77
2022-12-08T19:22:44.719Z,1.93
2022-12-08T19:25:30.152Z,1.91
2022-12-08T19:28:15.599Z,1.81
2022-12-08T19:31:06.177Z,1.87
2022-12-08T19:33:52.159Z,1.74
2022-12-08T19:36:37.317Z,1.79
2022-12-08T19:39:24.112Z,1.86
2022-12-08T19:42:17.516Z,1.74
2022-12-08T19:45:13.659Z,1.73
2022-12-08T19:47:59.307Z,1.71
2022-12-08T19:50:44.240Z,1.71
2022-12-08T19:53:29.402Z,1.77
2022-12-08T19:56:14.814Z,1.69
2022-12-08T19:59:02.861Z,1.67
2022-12-08T20:01:48.304Z,1.74
2022-12-08T20:04:33.729Z,1.71
2022-12-08T20:07:19.024Z,1.65
2022-12-08T20:10:12.247Z,1.58
2022-12-08T20:12:57.618Z,1.61
2022-12-08T20:15:45.252Z,1.70
2022-12-08T20:18:30.370Z,1.76
2022-12-08T20:21:16.062Z,1.84
2022-12-08T20:24:01.254Z,1.63
2022-12-08T20:26:46.487Z,1.64
2022-12-08T20:29:32.211Z,1.56
2022-12-08T20:32:17.432Z,1.58
2022-12-08T20:35:05.851Z,1.61
2022-12-08T20:37:51.308Z,1.52
2022-12-08T20:40:36.798Z,1.51
2022-12-08T20:43:22.430Z,1.47
2022-12-08T20:46:09.996Z,1.43
2022-12-08T20:48:56.154Z,1.54
2022-12-08T20:51:42.169Z,1.52
2022-12-08T20:54:27.465Z,1.48
2022-12-08T20:57:12.901Z,1.41
2022-12-08T20:59:57.865Z,1.39
2022-12-08T21:02:49.734Z,1.44
2022-12-08T21:05:39.399Z,1.42
2022-12-08T21:08:27.281Z,1.40
2022-12-08T21:11:13.133Z,1.41
2022-12-08T21:13:57.992Z,1.39
2022-12-08T21:16:43.465Z,1.53
2022-12-08T21:19:29.248Z,1.55
2022-12-08T21:22:15.502Z,1.64
2022-12-08T21:25:01.317Z,1.58
2022-12-08T21:27:46.500Z,1.81
2022-12-08T21:30:31.545Z,1.86
2022-12-08T21:33:16.929Z,1.75
2022-12-08T21:36:14.710Z,1.70
2022-12-08T21:39:00.020Z,1.80
2022-12-08T21:41:45.280Z,1.60
2022-12-08T21:44:32.083Z,1.45
2022-12-08T21:47:17.307Z,1.31
2022-12-08T21:50:03.882Z,1.28
2022-12-08T21:52:49.672Z,1.38
2022-12-08T21:55:34.933Z,1.27
2022-12-08T21:58:20.121Z,1.29
2022-12-08T22:01:10.840Z,1.25
2022-12-08T22:03:55.933Z,1.34
2022-12-08T22:06:41.280Z,1.33
2022-12-08T22:09:26.720Z,1.33
2022-12-08T22:12:12.246Z,1.27
2022-12-08T22:14:57.585Z,1.41
2022-12-08T22:17:43.974Z,1.33
2022-12-08T22:20:29.179Z,1.28
2022-12-08T22:23:14.606Z,1.26
2022-12-08T22:26:01.714Z,1.14
2022-12-08T22:28:47.220Z,1.22
2022-12-08T22:31:34.388Z,1.17
2022-12-08T22:34:20.091Z,1.10
2022-12-08T22:37:05.249Z,1.13
2022-12-08T22:39:51.321Z,1.08
2022-12-08T22:42:37.472Z,1.16
2022-12-08T22:45:22.838Z,1.10
2022-12-08T22:48:10.468Z,1.17
2022-12-08T22:51:02.082Z,1.31
2022-12-08T22:53:49.721Z,1.18
2022-12-08T22:56:39.896Z,1.19
2022-12-08T22:59:25.368Z,1.11
2022-12-08T23:02:12.583Z,1.15
2022-12-08T23:04:57.921Z,1.20
2022-12-08T23:07:43.706Z,1.08
2022-12-08T23:10:30.395Z,1.06
2022-12-08T23:13:17.095Z,1.06
2022-12-08T23:16:05.683Z,0.99
2022-12-08T23:18:51.894Z,1.04
2022-12-08T23:21:36.855Z,1.14
2022-12-08T23:24:22.304Z,1.19
2022-12-08T23:27:07.800Z,1.33
2022-12-08T23:29:52.916Z,1.33
2022-12-08T23:32:38.502Z,1.32
2022-12-08T23:35:23.731Z,1.20
2022-12-08T23:38:09.029Z,1.16
2022-12-08T23:40:54.504Z,1.27
2022-12-08T23:43:48.416Z,1.38
2022-12-08T23:46:33.681Z,1.27
2022-12-08T23:49:18.858Z,1.15
2022-12-08T23:52:04.448Z,0.92
2022-12-08T23:54:50.458Z,0.81
2022-12-08T23:57:36.261Z,0.90
